createdAt,value
2018-12-19T00:01:11.742Z,5.40
2018-12-19T00:06:04.950Z,5.40
2018-12-19T00:10:59.157Z,5.40
2018-12-19T00:15:52.409Z,5.40
2018-12-19T00:20:45.625Z,5.40
2018-12-19T00:25:38.821Z,5.40
2018-12-19T00:30:32.662Z,5.30
2018-12-19T00:35:25.940Z,5.30
2018-12-19T00:40:19.892Z,5.40
2018-12-19T00:45:13.245Z,5.40
2018-12-19T00:50:07.485Z,5.40
2018-12-19T00:55:00.763Z,5.40
2018-12-19T00:59:53.998Z,5.40
2018-12-19T01:04:48.244Z,5.40
2018-12-19T01:09:41.791Z,5.50
2018-12-19T01:14:35.148Z,5.50
2018-12-19T01:19:29.071Z,5.50
2018-12-19T01:24:22.851Z,5.50
2018-12-19T01:29:16.384Z,5.50
2018-12-19T01:34:09.724Z,5.60
2018-12-19T01:39:04.992Z,5.50
2018-12-19T01:43:58.223Z,5.60
2018-12-19T01:48:51.423Z,5.60
2018-12-19T01:53:44.636Z,5.60
2018-12-19T01:58:37.812Z,5.60
2018-12-19T02:03:31.050Z,5.60
2018-12-19T02:08:24.285Z,5.70
2018-12-19T02:13:17.515Z,5.70
2018-12-19T02:18:11.339Z,5.70
2018-12-19T02:23:05.475Z,5.60
2018-12-19T02:27:58.821Z,5.70
2018-12-19T02:32:52.040Z,5.70
2018-12-19T02:37:46.134Z,5.70
2018-12-19T02:42:39.353Z,5.70
2018-12-19T02:47:32.561Z,5.70
2018-12-19T02:52:25.802Z,5.70
2018-12-19T02:57:19.058Z,5.70
2018-12-19T03:02:12.283Z,5.70
2018-12-19T03:07:05.497Z,5.70
2018-12-19T03:11:58.746Z,5.60
2018-12-19T03:16:51.926Z,5.70
2018-12-19T03:21:45.173Z,5.70
2018-12-19T03:26:38.439Z,5.80
2018-12-19T03:31:31.649Z,5.80
2018-12-19T03:36:24.913Z,5.90
2018-12-19T03:41:18.133Z,5.90
2018-12-19T03:46:11.352Z,5.90
2018-12-19T03:51:04.626Z,6.00
2018-12-19T03:55:57.848Z,6.00
2018-12-19T04:00:51.064Z,6.00
2018-12-19T04:05:44.295Z,6.00
2018-12-19T04:10:37.489Z,6.00
2018-12-19T04:15:30.712Z,5.90
2018-12-19T04:20:23.938Z,5.80
2018-12-19T04:25:17.172Z,5.70
2018-12-19T04:30:10.524Z,5.80
2018-12-19T04:35:03.873Z,5.80
2018-12-19T04:40:05.104Z,5.70
2018-12-19T04:44:53.029Z,5.80
2018-12-19T04:49:46.250Z,5.80
2018-12-19T04:54:39.489Z,5.80
2018-12-19T04:59:32.811Z,5.80
2018-12-19T05:04:26.057Z,5.90
2018-12-19T05:09:19.275Z,6.00
2018-12-19T05:14:12.850Z,6.10
2018-12-19T05:19:06.182Z,6.20
2018-12-19T05:23:59.393Z,6.20
2018-12-19T05:28:54.686Z,6.30
2018-12-19T05:33:47.959Z,6.30
2018-12-19T05:38:41.308Z,6.30
2018-12-19T05:43:34.537Z,6.40
2018-12-19T05:48:27.823Z,6.40
2018-12-19T05:53:21.063Z,6.50
2018-12-19T05:58:14.279Z,6.60
2018-12-19T06:03:07.502Z,6.80
2018-12-19T06:08:00.735Z,6.80
2018-12-19T06:12:53.972Z,6.90
2018-12-19T06:17:47.259Z,6.90
2018-12-19T06:22:40.487Z,7.00
2018-12-19T06:27:34.127Z,7.00
2018-12-19T06:32:27.381Z,7.00
2018-12-19T06:37:20.602Z,7.10
2018-12-19T06:42:13.910Z,7.10
2018-12-19T06:47:07.160Z,7.20
2018-12-19T06:52:01.723Z,7.30
2018-12-19T06:56:55.229Z,7.40
2018-12-19T07:01:48.431Z,7.50
2018-12-19T07:06:41.651Z,7.50
2018-12-19T07:11:35.030Z,7.60
2018-12-19T07:16:28.273Z,7.70
2018-12-19T07:21:21.596Z,7.70
2018-12-19T07:26:14.813Z,7.80
2018-12-19T07:31:08.054Z,7.90
2018-12-19T07:36:01.258Z,7.90
2018-12-19T07:40:54.477Z,8.00
2018-12-19T07:45:48.428Z,8.00
2018-12-19T07:50:41.806Z,8.10
2018-12-19T07:55:37.124Z,8.00
2018-12-19T08:00:30.340Z,8.00
2018-12-19T08:05:26.366Z,7.80
2018-12-19T08:10:18.796Z,7.60
2018-12-19T08:15:11.998Z,7.60
2018-12-19T08:24:58.521Z,7.50
2018-12-19T08:29:51.757Z,7.60
2018-12-19T08:34:44.996Z,7.60
2018-12-19T08:39:38.414Z,7.70
2018-12-19T08:44:31.603Z,7.70
2018-12-19T08:49:26.203Z,7.80
2018-12-19T08:54:19.522Z,7.90
2018-12-19T08:59:12.856Z,8.10
2018-12-19T09:04:06.215Z,8.50
2018-12-19T09:08:59.443Z,8.40
2018-12-19T09:13:52.805Z,8.60
2018-12-19T09:18:46.028Z,8.90
2018-12-19T09:23:39.292Z,9.10
2018-12-19T09:28:32.708Z,9.40
2018-12-19T09:33:27.593Z,9.50
2018-12-19T09:38:21.254Z,9.50
2018-12-19T09:43:14.507Z,9.60
2018-12-19T09:48:07.907Z,9.60
2018-12-19T09:53:01.137Z,9.60
2018-12-19T09:57:54.487Z,9.60
2018-12-19T10:02:47.732Z,9.60
2018-12-19T10:07:41.086Z,9.70
2018-12-19T10:12:34.359Z,9.70
2018-12-19T10:17:28.537Z,9.70
2018-12-19T10:22:29.641Z,9.70
2018-12-19T10:27:23.965Z,9.80
2018-12-19T10:32:22.870Z,9.90
2018-12-19T10:37:21.903Z,10.00
2018-12-19T10:42:20.485Z,10.10
2018-12-19T10:47:18.077Z,10.20
2018-12-19T10:52:15.986Z,10.30
2018-12-19T10:57:14.408Z,10.50
2018-12-19T11:02:11.717Z,10.60
2018-12-19T11:07:08.555Z,10.80
2018-12-19T11:12:06.422Z,10.90
2018-12-19T11:17:06.168Z,10.90
2018-12-19T11:22:04.826Z,11.20
2018-12-19T11:27:03.328Z,11.20
2018-12-19T11:32:01.118Z,11.30
2018-12-19T11:36:59.693Z,11.50
2018-12-19T11:41:56.728Z,11.70
2018-12-19T11:46:58.286Z,11.70
2018-12-19T11:51:55.822Z,11.80
2018-12-19T11:56:53.938Z,11.70
2018-12-19T12:01:52.504Z,11.50
2018-12-19T12:06:50.540Z,11.40
2018-12-19T12:11:49.035Z,11.30
2018-12-19T12:16:45.751Z,11.30
2018-12-19T12:21:44.665Z,11.40
2018-12-19T12:26:42.065Z,11.40
2018-12-19T12:31:37.321Z,11.40
2018-12-19T12:36:33.870Z,11.50
2018-12-19T12:41:30.150Z,11.50
2018-12-19T12:46:25.619Z,11.70
2018-12-19T12:51:21.697Z,11.90
2018-12-19T12:56:15.043Z,11.90
2018-12-19T13:01:08.282Z,11.80
2018-12-19T13:06:01.561Z,11.80
2018-12-19T13:10:55.175Z,11.70
2018-12-19T13:15:48.397Z,11.70
2018-12-19T13:20:41.649Z,11.70
2018-12-19T13:25:34.888Z,11.70
2018-12-19T13:30:28.141Z,11.70
2018-12-19T13:35:21.376Z,11.60
2018-12-19T13:40:14.688Z,11.80
2018-12-19T13:45:08.577Z,11.70
2018-12-19T13:50:01.987Z,11.50
2018-12-19T13:54:55.235Z,11.30
2018-12-19T13:59:48.467Z,11.30
2018-12-19T14:04:42.898Z,11.10
2018-12-19T14:09:36.242Z,11.10
2018-12-19T14:14:29.469Z,11.10
2018-12-19T14:19:22.841Z,11.00
2018-12-19T14:24:16.305Z,11.00
2018-12-19T14:29:09.557Z,10.90
2018-12-19T14:34:02.866Z,10.90
2018-12-19T14:38:56.076Z,10.70
2018-12-19T14:43:49.319Z,10.70
2018-12-19T14:48:42.638Z,10.60
2018-12-19T14:53:35.895Z,10.60
2018-12-19T14:58:29.128Z,10.60
2018-12-19T15:03:22.361Z,10.70
2018-12-19T15:08:15.733Z,10.60
2018-12-19T15:13:08.943Z,10.60
2018-12-19T15:18:02.329Z,10.60
2018-12-19T15:22:55.567Z,10.50
2018-12-19T15:27:48.878Z,10.50
2018-12-19T15:32:42.525Z,10.50
2018-12-19T15:37:36.393Z,10.50
2018-12-19T15:42:32.652Z,10.50
2018-12-19T15:47:25.344Z,10.50
2018-12-19T15:52:18.643Z,10.40
2018-12-19T15:57:12.580Z,10.30
2018-12-19T16:02:06.024Z,10.30
2018-12-19T16:06:59.265Z,10.30
2018-12-19T16:11:52.514Z,10.20
2018-12-19T16:16:45.851Z,10.20
2018-12-19T16:21:39.063Z,10.10
2018-12-19T16:26:32.404Z,10.10
2018-12-19T16:31:25.611Z,10.10
2018-12-19T16:36:18.861Z,10.00
2018-12-19T16:41:12.134Z,9.90
2018-12-19T16:46:05.332Z,9.80
2018-12-19T16:50:58.974Z,9.80
2018-12-19T16:55:52.758Z,9.80
2018-12-19T17:00:45.953Z,9.80
2018-12-19T17:05:39.259Z,9.70
2018-12-19T17:10:32.496Z,9.60
2018-12-19T17:15:25.705Z,9.50
2018-12-19T17:20:18.932Z,9.30
2018-12-19T17:25:12.143Z,9.30
2018-12-19T17:30:05.672Z,9.20
2018-12-19T17:34:59.847Z,9.30
2018-12-19T17:39:53.073Z,9.20
2018-12-19T17:44:46.334Z,9.30
2018-12-19T17:49:39.722Z,9.30
2018-12-19T17:54:32.975Z,9.30
2018-12-19T17:59:27.177Z,9.30
2018-12-19T18:04:20.442Z,9.30
2018-12-19T18:09:13.813Z,9.30
2018-12-19T18:14:07.505Z,9.30
2018-12-19T18:19:00.779Z,9.30
2018-12-19T18:23:53.994Z,9.30
2018-12-19T18:28:48.197Z,9.30
2018-12-19T18:33:41.408Z,9.30
2018-12-19T18:38:34.699Z,9.30
2018-12-19T18:43:27.941Z,9.30
2018-12-19T18:48:21.246Z,9.30
2018-12-19T18:53:14.480Z,9.30
2018-12-19T18:58:07.728Z,9.30
2018-12-19T19:03:01.183Z,9.30
2018-12-19T19:07:54.460Z,9.20
2018-12-19T19:12:47.710Z,9.20
2018-12-19T19:17:41.023Z,9.10
2018-12-19T19:22:34.424Z,9.10
2018-12-19T19:27:27.625Z,9.10
2018-12-19T19:32:21.016Z,9.00
2018-12-19T19:37:14.266Z,9.00
2018-12-19T19:42:07.561Z,8.90
2018-12-19T19:47:00.834Z,8.90
2018-12-19T19:51:54.089Z,8.90
2018-12-19T19:56:48.545Z,8.90
2018-12-19T20:01:41.765Z,8.90
2018-12-19T20:06:35.006Z,8.80
2018-12-19T20:11:28.250Z,8.70
2018-12-19T20:16:22.006Z,8.60
2018-12-19T20:21:15.250Z,8.60
2018-12-19T20:26:08.458Z,8.50
2018-12-19T20:31:01.707Z,8.50
2018-12-19T20:35:54.997Z,8.50
2018-12-19T20:40:48.394Z,8.50
2018-12-19T20:45:41.613Z,8.50
2018-12-19T20:50:34.839Z,8.50
2018-12-19T20:55:28.086Z,8.50
2018-12-19T21:00:21.453Z,8.50
2018-12-19T21:05:14.664Z,8.40
2018-12-19T21:10:08.262Z,8.40
2018-12-19T21:15:01.492Z,8.40
2018-12-19T21:19:54.719Z,8.40
2018-12-19T21:24:47.909Z,8.40
2018-12-19T21:29:41.569Z,8.40
2018-12-19T21:34:34.796Z,8.40
2018-12-19T21:39:28.056Z,8.40
2018-12-19T21:44:21.403Z,8.20
2018-12-19T21:49:14.736Z,8.20
2018-12-19T21:54:07.933Z,8.20
2018-12-19T21:59:02.159Z,8.20
2018-12-19T22:03:56.593Z,8.20
2018-12-19T22:08:49.943Z,8.20
2018-12-19T22:13:43.870Z,8.20
2018-12-19T22:18:46.346Z,8.10
2018-12-19T22:23:39.615Z,8.10
2018-12-19T22:28:32.815Z,8.10
2018-12-19T22:33:26.063Z,7.90
2018-12-19T22:38:19.399Z,7.90
2018-12-19T22:43:12.615Z,7.90
2018-12-19T22:48:05.892Z,7.90
2018-12-19T22:52:59.857Z,7.80
2018-12-19T22:57:53.286Z,7.80
2018-12-19T23:02:52.416Z,7.70
2018-12-19T23:07:45.635Z,7.60
2018-12-19T23:12:38.849Z,7.50
2018-12-19T23:17:37.719Z,7.40
2018-12-19T23:22:31.076Z,7.30
2018-12-19T23:27:24.443Z,7.20
2018-12-19T23:32:22.287Z,7.20
2018-12-19T23:37:15.567Z,7.20
2018-12-19T23:42:08.823Z,7.20
2018-12-19T23:47:02.217Z,7.20
2018-12-19T23:51:55.678Z,7.30
2018-12-19T23:56:49.042Z,7.30
